Time;durP1;ratioP1;P1;durP2;ratioP2;P2;SDS_P1;SDS_P2;PMS_P1;PMS_P2;Temp;Humidity;BMP_temperature;BMP_pressure;BME280_temperature;BME280_humidity;BME280_pressure;Samples;Min_cycle;Max_cycle;Signal;HPM_P1;HPM_P2
2022/11/08 00:02:20;;;;;;;9.50;4.20;;;11.30;1.00;;;;;;5095768;28;20428;-60
2022/11/08 00:04:50;;;;;;;15.50;5.33;;;11.20;1.00;;;;;;5137526;28;20489;-60
2022/11/08 00:15:37;;;;;;;7.07;3.23;;;11.20;1.00;;;;;;5117387;28;20540;-57
2022/11/08 00:18:05;;;;;;;8.10;3.93;;;11.10;1.00;;;;;;5117824;28;20868;-59
2022/11/08 00:20:37;;;;;;;10.07;3.67;;;11.10;1.00;;;;;;5117402;28;20742;-58
2022/11/08 00:23:07;;;;;;;6.67;3.87;;;11.10;1.00;;;;;;5117168;28;20854;-60
2022/11/08 00:25:34;;;;;;;9.40;3.60;;;11.10;1.00;;;;;;5137589;28;20479;-59
2022/11/08 00:28:02;;;;;;;6.37;3.50;;;11.10;1.00;;;;;;5138166;27;20805;-60
2022/11/08 00:30:29;;;;;;;6.13;4.20;;;11.20;99.90;;;;;;5136918;28;20469;-57
2022/11/08 00:33:03;;;;;;;11.20;4.80;;;11.20;99.90;;;;;;5137892;28;20553;-60
2022/11/08 00:35:30;;;;;;;8.13;4.23;;;11.10;99.90;;;;;;5135931;27;20492;-54
2022/11/08 00:37:58;;;;;;;6.07;3.47;;;11.10;99.90;;;;;;5138180;28;20458;-58
2022/11/08 00:40:29;;;;;;;8.30;4.07;;;11.10;99.90;;;;;;5137821;28;20458;-56
2022/11/08 00:42:56;;;;;;;7.50;3.80;;;11.20;99.90;;;;;;5139836;27;20863;-58
2022/11/08 00:45:27;;;;;;;9.03;3.73;;;11.20;99.90;;;;;;5130964;27;20976;-60
2022/11/08 00:47:54;;;;;;;12.00;3.93;;;11.20;99.90;;;;;;5121321;27;20463;-59
2022/11/08 00:50:22;;;;;;;6.23;4.10;;;11.30;99.90;;;;;;5120465;27;20459;-60
2022/11/08 00:52:49;;;;;;;6.50;3.70;;;11.30;99.90;;;;;;5121136;28;20756;-58
2022/11/08 00:55:16;;;;;;;6.80;3.97;;;11.40;99.90;;;;;;5125941;27;20458;-56
2022/11/08 00:57:45;;;;;;;7.97;2.90;;;11.40;99.90;;;;;;5141296;27;20434;-58
2022/11/08 01:00:18;;;;;;;9.13;3.67;;;11.40;99.90;;;;;;5140587;27;20463;-56
2022/11/08 01:03:17;;;;;;;9.37;2.93;;;11.50;99.90;;;;;;5139580;27;20477;-59
2022/11/08 01:05:37;;;;;;;7.27;3.10;;;11.50;96.70;;;;;;5120852;28;20482;-59
2022/11/08 01:08:07;;;;;;;4.70;3.77;;;11.50;55.70;;;;;;5120998;28;20490;-59
2022/11/08 01:10:52;;;;;;;5.80;2.90;;;11.60;45.20;;;;;;5120586;28;20558;-59
2022/11/08 01:13:22;;;;;;;4.60;3.50;;;11.50;37.20;;;;;;5121849;27;20565;-58
2022/11/08 09:02:14;;;;;;;4.43;2.60;;;14.40;99.90;;;;;;5117602;28;20803;-62
2022/11/08 09:04:48;;;;;;;3.80;2.20;;;14.40;99.90;;;;;;5121815;28;20459;-62
2022/11/08 09:07:19;;;;;;;3.20;2.33;;;14.40;99.90;;;;;;5120620;28;20455;-62
2022/11/08 09:09:59;;;;;;;3.00;2.00;;;14.50;99.90;;;;;;5127419;27;20477;-63
2022/11/08 09:12:42;;;;;;;3.07;2.40;;;14.60;99.90;;;;;;5132290;27;20459;-62
2022/11/08 09:15:12;;;;;;;2.93;2.20;;;14.70;99.90;;;;;;5139122;27;20808;-62
2022/11/08 09:17:49;;;;;;;3.30;2.40;;;14.90;99.90;;;;;;5141225;27;20468;-62
2022/11/08 09:20:23;;;;;;;2.80;2.40;;;14.80;99.90;;;;;;5141381;27;20948;-61
2022/11/08 09:22:50;;;;;;;2.80;2.13;;;14.70;99.90;;;;;;5120269;28;20433;-62
2022/11/08 09:25:18;;;;;;;6.57;2.60;;;14.70;99.90;;;;;;5124875;27;20505;-62
2022/11/08 09:27:49;;;;;;;2.77;2.47;;;14.70;99.90;;;;;;5140917;27;20437;-62
2022/11/08 09:30:26;;;;;;;4.67;2.77;;;14.60;99.90;;;;;;5140875;27;20625;-62
2022/11/08 09:32:59;;;;;;;3.20;2.30;;;14.60;99.90;;;;;;5139297;27;20462;-63
2022/11/08 09:35:27;;;;;;;3.00;2.40;;;14.50;99.90;;;;;;5139071;27;20760;-62
2022/11/08 09:37:54;;;;;;;3.20;2.70;;;14.50;99.90;;;;;;5140587;27;20433;-60
2022/11/08 09:40:27;;;;;;;2.87;2.40;;;14.60;99.90;;;;;;5139768;27;20463;-63
2022/11/08 09:43:03;;;;;;;5.17;2.50;;;14.60;99.90;;;;;;5126540;27;20469;-63
2022/11/08 09:45:42;;;;;;;3.70;2.37;;;14.50;99.90;;;;;;5119882;27;20537;-59
2022/11/08 09:48:24;;;;;;;5.60;2.10;;;14.50;99.90;;;;;;5119998;28;20506;-62
2022/11/08 09:50:53;;;;;;;5.70;2.20;;;14.50;99.90;;;;;;5120398;28;20467;-63
2022/11/08 09:53:33;;;;;;;4.90;2.13;;;14.50;99.90;;;;;;5119644;28;20470;-62
2022/11/08 09:56:05;;;;;;;5.00;2.70;;;14.50;99.90;;;;;;5119666;28;20914;-61
2022/11/08 09:58:35;;;;;;;4.93;2.50;;;14.40;99.90;;;;;;5120528;28;20460;-62
2022/11/08 10:01:04;;;;;;;2.60;2.20;;;14.40;99.90;;;;;;5120256;28;20462;-62
2022/11/08 10:03:32;;;;;;;2.70;2.30;;;14.40;99.90;;;;;;5119735;27;20502;-62
2022/11/08 10:06:24;;;;;;;5.67;2.30;;;14.30;99.90;;;;;;5119931;28;20954;-62
2022/11/08 10:09:02;;;;;;;3.77;2.57;;;14.20;99.90;;;;;;5119885;28;20541;-61
2022/11/08 10:11:48;;;;;;;5.33;2.80;;;14.30;99.90;;;;;;5119730;28;20834;-63
2022/11/08 10:14:30;;;;;;;2.77;2.00;;;14.20;99.90;;;;;;5119756;28;20467;-62
2022/11/08 10:17:08;;;;;;;4.43;2.80;;;14.10;99.90;;;;;;5119633;28;20434;-61
2022/11/08 10:19:50;;;;;;;3.23;2.43;;;14.10;99.90;;;;;;5119396;28;20462;-61
2022/11/08 10:22:25;;;;;;;2.60;2.27;;;14.10;99.90;;;;;;5119567;28;20438;-60
2022/11/08 10:24:59;;;;;;;3.30;2.67;;;14.10;99.90;;;;;;5119576;28;20721;-62
2022/11/08 10:27:35;;;;;;;3.37;2.87;;;14.20;99.90;;;;;;5118872;28;20466;-60
2022/11/08 10:30:07;;;;;;;2.63;2.37;;;14.20;99.90;;;;;;5119129;28;20442;-60
2022/11/08 10:32:35;;;;;;;2.80;2.50;;;14.10;99.90;;;;;;5118920;28;20719;-64
2022/11/08 10:35:17;;;;;;;3.10;2.27;;;14.10;99.90;;;;;;5119255;28;20445;-62
2022/11/08 10:37:52;;;;;;;2.90;2.60;;;14.00;99.90;;;;;;5118940;28;20460;-59
2022/11/08 10:40:28;;;;;;;3.80;2.50;;;14.10;99.90;;;;;;5119302;28;20536;-60
2022/11/08 10:43:02;;;;;;;6.20;2.60;;;14.10;99.90;;;;;;5118684;28;20469;-61
2022/11/08 10:45:31;;;;;;;3.27;2.43;;;14.10;99.90;;;;;;5118623;28;20466;-61
2022/11/08 10:48:02;;;;;;;3.73;2.53;;;14.20;99.90;;;;;;5118988;28;20467;-61
2022/11/08 10:50:45;;;;;;;3.30;2.60;;;14.30;99.90;;;;;;5119147;28;20493;-58
2022/11/08 10:53:19;;;;;;;4.20;2.60;;;14.30;99.90;;;;;;5118567;28;20471;-61
2022/11/08 10:55:49;;;;;;;7.50;3.13;;;14.10;99.90;;;;;;5118418;28;20467;-61
2022/11/08 10:58:37;;;;;;;3.53;2.50;;;14.10;99.90;;;;;;5119238;28;20449;-61
2022/11/08 11:01:13;;;;;;;3.83;2.73;;;14.10;99.90;;;;;;5119050;28;20894;-62
2022/11/08 11:03:40;;;;;;;5.83;2.60;;;14.10;99.90;;;;;;5118803;28;20498;-61
2022/11/08 11:06:22;;;;;;;3.40;2.50;;;14.10;99.90;;;;;;5118497;28;20593;-62
2022/11/08 11:08:50;;;;;;;4.03;2.50;;;14.20;99.90;;;;;;5118651;28;20843;-60
2022/11/08 11:11:26;;;;;;;4.90;2.57;;;14.10;99.90;;;;;;5118416;28;20542;-62
2022/11/08 11:14:15;;;;;;;3.00;2.60;;;14.20;99.90;;;;;;5118672;28;20806;-61
2022/11/08 11:16:56;;;;;;;3.03;2.10;;;14.20;99.90;;;;;;5118813;28;20830;-60
2022/11/08 11:19:25;;;;;;;3.33;2.50;;;14.40;99.90;;;;;;5118014;28;20455;-62
2022/11/08 11:22:02;;;;;;;3.63;2.47;;;14.40;99.90;;;;;;5117830;28;20757;-62
2022/11/08 11:24:30;;;;;;;4.33;2.90;;;14.30;99.90;;;;;;5118510;28;20458;-61
2022/11/08 11:27:04;;;;;;;2.80;2.50;;;14.30;99.90;;;;;;5117700;28;20487;-62
2022/11/08 11:29:32;;;;;;;3.93;2.73;;;14.40;99.90;;;;;;5118085;28;20434;-60
2022/11/08 11:32:19;;;;;;;3.73;2.30;;;14.40;99.90;;;;;;5118115;28;20919;-61
2022/11/08 11:34:52;;;;;;;4.47;2.80;;;14.50;99.90;;;;;;5117112;28;20435;-62
2022/11/08 11:37:29;;;;;;;3.83;2.20;;;14.50;99.90;;;;;;5124514;27;20905;-62
2022/11/08 11:40:07;;;;;;;5.10;3.30;;;14.70;99.90;;;;;;5120689;27;20465;-61
2022/11/08 11:42:47;;;;;;;4.40;2.60;;;14.60;99.90;;;;;;5118203;28;20802;-61
2022/11/08 11:45:19;;;;;;;8.10;3.13;;;14.90;99.90;;;;;;5117519;28;20550;-59
2022/11/08 11:47:51;;;;;;;4.33;3.10;;;14.80;99.90;;;;;;5117801;28;20959;-60
2022/11/08 11:50:30;;;;;;;3.60;2.70;;;15.00;99.90;;;;;;5118350;28;20459;-61
2022/11/08 11:53:04;;;;;;;10.93;3.63;;;15.20;99.90;;;;;;5117424;28;20463;-61
2022/11/08 11:55:44;;;;;;;4.60;2.93;;;15.20;99.90;;;;;;5117514;28;20459;-59
2022/11/08 11:58:28;;;;;;;4.47;3.10;;;15.20;99.90;;;;;;5117969;28;20459;-61
2022/11/08 12:01:06;;;;;;;4.00;3.03;;;15.30;99.90;;;;;;5117821;28;20493;-62
2022/11/08 12:03:57;;;;;;;4.03;2.80;;;15.40;99.90;;;;;;5117601;28;20463;-60
2022/11/08 12:06:34;;;;;;;3.83;2.83;;;15.30;99.90;;;;;;5117684;28;20487;-62
2022/11/08 12:09:18;;;;;;;3.43;2.27;;;15.10;99.90;;;;;;5118088;28;20459;-61
2022/11/08 12:11:58;;;;;;;3.90;3.33;;;15.10;99.90;;;;;;5117239;28;20460;-61
2022/11/08 12:14:41;;;;;;;5.50;2.83;;;15.00;99.90;;;;;;5117383;28;20434;-60
2022/11/08 12:17:28;;;;;;;5.30;3.00;;;15.00;99.90;;;;;;5117307;28;20460;-61
2022/11/08 12:20:11;;;;;;;4.30;2.40;;;15.00;99.90;;;;;;5117410;28;20467;-60
2022/11/08 12:22:56;;;;;;;4.20;2.47;;;15.50;99.90;;;;;;5117661;28;20501;-59
2022/11/08 12:25:32;;;;;;;5.30;2.60;;;15.70;99.90;;;;;;5117333;28;20948;-59
2022/11/08 12:28:04;;;;;;;4.33;2.87;;;15.90;99.90;;;;;;5117524;28;20544;-57
2022/11/08 12:30:42;;;;;;;3.13;2.83;;;15.70;99.90;;;;;;5117753;28;20553;-61
2022/11/08 12:33:27;;;;;;;4.10;2.80;;;15.50;99.90;;;;;;5116170;28;20467;-61
2022/11/08 12:36:16;;;;;;;3.33;2.80;;;15.50;99.90;;;;;;5115293;28;20520;-58
2022/11/08 12:38:54;;;;;;;3.53;2.43;;;15.60;99.90;;;;;;5119540;27;20568;-61
2022/11/08 12:41:33;;;;;;;5.33;2.83;;;15.50;99.90;;;;;;5120270;27;20441;-61
2022/11/08 12:44:25;;;;;;;6.70;2.90;;;15.50;99.90;;;;;;5132869;27;20458;-58
2022/11/08 12:47:06;;;;;;;4.17;3.07;;;15.30;99.90;;;;;;5136407;27;20572;-60
2022/11/08 12:49:39;;;;;;;4.53;3.23;;;15.40;99.90;;;;;;5120426;27;20786;-58
2022/11/08 12:52:18;;;;;;;7.20;2.50;;;15.40;99.90;;;;;;5135498;27;20870;-62
2022/11/08 12:54:50;;;;;;;6.80;2.97;;;15.40;99.90;;;;;;5120315;27;20899;-60
2022/11/08 12:57:26;;;;;;;4.40;2.53;;;15.40;99.90;;;;;;5121720;27;20454;-60
2022/11/08 13:00:02;;;;;;;4.63;2.73;;;15.40;99.90;;;;;;5140844;27;20519;-61
2022/11/08 13:02:36;;;;;;;4.27;2.67;;;15.50;99.90;;;;;;5138878;27;20558;-61
2022/11/08 13:05:09;;;;;;;3.67;2.90;;;15.50;99.90;;;;;;5140413;27;20432;-61
2022/11/08 13:07:44;;;;;;;4.60;2.40;;;15.50;99.90;;;;;;5122007;27;20931;-61
2022/11/08 13:10:28;;;;;;;5.27;2.40;;;15.60;99.90;;;;;;5123277;27;20466;-60
2022/11/08 13:13:21;;;;;;;3.90;2.63;;;15.50;99.90;;;;;;5139050;27;20803;-58
2022/11/08 13:16:10;;;;;;;3.97;3.30;;;15.60;99.90;;;;;;5141396;27;20433;-60
2022/11/08 13:18:45;;;;;;;4.80;2.60;;;15.60;99.90;;;;;;5130662;27;20846;-60
2022/11/08 13:21:36;;;;;;;3.07;2.13;;;15.70;99.90;;;;;;5141062;27;20458;-60
2022/11/08 13:24:37;;;;;;;3.90;3.07;;;15.70;99.90;;;;;;5141128;27;20466;-61
2022/11/08 13:27:35;;;;;;;4.67;2.93;;;15.70;99.90;;;;;;5141421;27;20492;-62
2022/11/08 13:30:34;;;;;;;3.90;3.33;;;15.50;99.90;;;;;;5140624;27;20459;-59
2022/11/08 13:33:16;;;;;;;8.40;2.70;;;15.40;99.90;;;;;;5141212;27;20465;-61
2022/11/08 13:35:52;;;;;;;4.60;2.63;;;15.20;99.90;;;;;;5140792;27;20459;-62
2022/11/08 13:38:30;;;;;;;3.87;2.70;;;15.20;99.90;;;;;;5138885;27;20464;-58
2022/11/08 13:41:16;;;;;;;3.57;2.20;;;15.00;99.90;;;;;;5138277;27;20478;-61
2022/11/08 13:43:45;;;;;;;3.60;2.70;;;14.80;99.90;;;;;;5129620;27;20478;-61
2022/11/08 13:46:48;;;;;;;2.90;2.20;;;14.80;99.90;;;;;;5119374;28;20430;-60
2022/11/08 13:49:21;;;;;;;4.30;2.77;;;14.80;99.90;;;;;;5133475;27;20554;-62
2022/11/08 13:51:50;;;;;;;2.83;2.50;;;14.80;99.90;;;;;;5137468;27;20451;-61
2022/11/08 13:54:51;;;;;;;5.67;2.90;;;14.70;99.90;;;;;;5139529;27;20733;-61
2022/11/08 13:57:40;;;;;;;6.93;3.10;;;14.70;99.90;;;;;;5139649;27;20732;-60
2022/11/08 14:00:30;;;;;;;4.10;2.40;;;14.70;99.90;;;;;;5119085;28;20487;-62
2022/11/08 14:02:59;;;;;;;4.17;2.33;;;14.70;99.90;;;;;;5118711;28;20880;-62
2022/11/08 14:05:31;;;;;;;3.90;2.70;;;14.60;99.90;;;;;;5119276;28;20570;-60
2022/11/08 14:08:27;;;;;;;2.97;2.67;;;14.60;99.90;;;;;;5119828;28;20502;-60
2022/11/08 14:11:22;;;;;;;3.80;2.60;;;14.60;99.90;;;;;;5120019;28;20525;-60
2022/11/08 14:14:29;;;;;;;4.57;2.50;;;14.50;99.90;;;;;;5119399;28;20433;-57
2022/11/08 14:17:39;;;;;;;4.30;2.70;;;14.50;99.90;;;;;;5119469;28;20429;-59
2022/11/08 14:20:33;;;;;;;3.40;2.40;;;14.50;99.90;;;;;;5119656;28;20475;-62
2022/11/08 14:23:15;;;;;;;4.37;2.70;;;14.40;99.90;;;;;;5119976;27;20437;-58
2022/11/08 14:25:46;;;;;;;8.40;3.07;;;14.40;99.90;;;;;;5119188;28;20455;-62
2022/11/08 14:28:25;;;;;;;4.57;2.50;;;14.40;99.90;;;;;;5119672;28;20491;-63
2022/11/08 14:30:56;;;;;;;4.80;2.63;;;14.40;99.90;;;;;;5119362;28;20545;-58
2022/11/08 14:33:26;;;;;;;6.33;2.90;;;14.40;99.90;;;;;;5118927;27;20440;-60
2022/11/08 14:35:59;;;;;;;4.30;3.00;;;14.30;99.90;;;;;;5118741;28;20814;-62
2022/11/08 14:38:27;;;;;;;5.53;2.70;;;14.30;99.90;;;;;;5119255;28;20430;-61
2022/11/08 14:40:56;;;;;;;3.33;2.80;;;14.30;99.90;;;;;;5119491;28;20470;-62
2022/11/08 14:43:27;;;;;;;5.33;2.70;;;14.30;99.90;;;;;;5119236;28;20459;-62
2022/11/08 14:45:56;;;;;;;3.73;3.40;;;14.30;99.90;;;;;;5118985;28;20434;-61
2022/11/08 14:48:27;;;;;;;4.33;2.60;;;14.40;99.90;;;;;;5119108;28;20498;-60
2022/11/08 14:51:00;;;;;;;4.00;2.93;;;14.40;99.90;;;;;;5119071;27;20525;-63
2022/11/08 14:53:30;;;;;;;7.10;3.00;;;14.40;99.90;;;;;;5119300;28;20460;-61
2022/11/08 14:56:08;;;;;;;3.80;2.57;;;14.30;99.90;;;;;;5118617;28;20445;-62
2022/11/08 14:58:35;;;;;;;5.27;2.73;;;14.30;99.90;;;;;;5118841;28;20434;-61
2022/11/08 15:01:03;;;;;;;4.40;3.03;;;14.30;99.90;;;;;;5117785;28;20458;-60
2022/11/08 15:03:32;;;;;;;3.63;2.53;;;14.30;99.90;;;;;;5118668;28;20464;-62
2022/11/08 15:06:01;;;;;;;3.23;2.50;;;14.30;99.90;;;;;;5118483;28;20438;-60
2022/11/08 15:08:31;;;;;;;4.23;2.97;;;14.30;99.90;;;;;;5118934;28;20795;-60
2022/11/08 15:11:02;;;;;;;5.57;2.60;;;14.20;99.90;;;;;;5118717;28;20464;-61
2022/11/08 15:13:39;;;;;;;3.80;2.33;;;14.20;99.90;;;;;;5118657;28;20464;-61
2022/11/08 15:16:10;;;;;;;6.43;2.80;;;14.20;99.90;;;;;;5118676;28;20462;-61
2022/11/08 15:18:39;;;;;;;5.23;3.23;;;14.20;99.90;;;;;;5118093;28;20430;-61
2022/11/08 15:21:22;;;;;;;5.60;2.93;;;14.20;99.90;;;;;;5118453;28;20473;-62
2022/11/08 15:23:52;;;;;;;2.90;2.47;;;14.20;99.90;;;;;;5118515;28;20461;-60
2022/11/08 15:26:25;;;;;;;4.47;2.93;;;14.20;99.90;;;;;;5118627;28;20757;-61
2022/11/08 15:29:00;;;;;;;5.60;2.80;;;14.20;99.90;;;;;;5118265;28;20581;-61
2022/11/08 15:31:34;;;;;;;3.80;3.30;;;14.20;99.90;;;;;;5118034;28;20462;-61
2022/11/08 15:34:05;;;;;;;5.77;4.10;;;14.20;99.90;;;;;;5118411;27;20837;-57
2022/11/08 15:36:36;;;;;;;8.70;5.33;;;14.20;99.90;;;;;;5126685;27;20464;-60
2022/11/08 15:39:05;;;;;;;8.10;5.80;;;14.20;99.90;;;;;;5118482;28;20462;-62
2022/11/08 15:41:36;;;;;;;5.70;4.97;;;14.20;99.90;;;;;;5117975;27;20464;-58
2022/11/08 15:44:22;;;;;;;5.80;5.17;;;14.20;99.90;;;;;;5118076;27;20468;-60
2022/11/08 15:46:49;;;;;;;5.90;3.67;;;14.20;99.90;;;;;;5124283;27;20483;-59
2022/11/08 15:49:19;;;;;;;6.00;3.80;;;14.20;99.90;;;;;;5138110;27;20522;-59
2022/11/08 15:51:49;;;;;;;3.93;3.40;;;14.20;99.90;;;;;;5137674;27;20871;-62
2022/11/08 15:54:18;;;;;;;7.33;3.53;;;14.20;99.90;;;;;;5127726;27;20818;-60
2022/11/08 15:56:47;;;;;;;4.70;3.20;;;14.20;99.90;;;;;;5135926;27;20450;-61
2022/11/08 15:59:19;;;;;;;3.90;2.97;;;14.20;99.90;;;;;;5126993;27;20465;-60
2022/11/08 16:01:52;;;;;;;4.37;3.30;;;14.20;99.90;;;;;;5137932;27;20535;-62
2022/11/08 16:04:20;;;;;;;6.90;3.83;;;14.20;99.90;;;;;;5127265;27;20532;-61
2022/11/08 16:06:49;;;;;;;3.83;2.80;;;14.20;99.90;;;;;;5115472;28;20770;-62
2022/11/08 16:09:22;;;;;;;5.63;2.90;;;14.20;99.90;;;;;;5119516;28;20565;-60
2022/11/08 16:11:53;;;;;;;4.77;2.70;;;14.20;99.90;;;;;;5134581;27;20472;-60
2022/11/08 16:14:23;;;;;;;4.80;3.00;;;14.20;99.90;;;;;;5139279;27;20438;-60
2022/11/08 16:16:50;;;;;;;5.13;3.53;;;14.20;99.90;;;;;;5136136;27;20725;-59
2022/11/08 16:19:21;;;;;;;5.03;3.40;;;14.20;99.90;;;;;;5124492;28;20477;-60
2022/11/08 16:21:51;;;;;;;9.17;5.10;;;14.10;99.90;;;;;;5129289;27;20482;-57
2022/11/08 16:24:21;;;;;;;11.30;4.20;;;14.00;99.90;;;;;;5138910;27;20494;-57
2022/11/08 16:26:49;;;;;;;4.67;3.20;;;14.00;99.90;;;;;;5143489;27;20439;-62
2022/11/08 16:29:20;;;;;;;7.97;3.70;;;14.00;99.90;;;;;;5140398;27;20486;-58
2022/11/08 16:31:48;;;;;;;6.33;3.17;;;14.10;99.90;;;;;;5142341;27;20443;-62
2022/11/08 16:34:16;;;;;;;3.07;2.77;;;14.10;99.90;;;;;;5142500;27;20430;-59
2022/11/08 16:36:45;;;;;;;4.90;2.83;;;14.10;99.90;;;;;;5129364;27;20451;-59
2022/11/08 16:39:17;;;;;;;5.70;4.27;;;14.10;99.90;;;;;;5142245;27;20433;-58
2022/11/08 16:41:47;;;;;;;6.43;3.90;;;14.20;99.90;;;;;;5144713;27;20458;-55
2022/11/08 16:44:14;;;;;;;6.23;3.40;;;14.20;99.90;;;;;;5144970;27;20461;-53
2022/11/08 16:46:42;;;;;;;4.00;3.23;;;14.20;99.90;;;;;;5144878;27;20462;-60
2022/11/08 16:49:20;;;;;;;7.03;3.80;;;14.20;99.90;;;;;;5144748;27;20461;-59
2022/11/08 16:51:50;;;;;;;4.50;3.03;;;14.20;99.90;;;;;;5145676;27;20458;-60
2022/11/08 16:54:22;;;;;;;4.90;4.37;;;14.20;99.90;;;;;;5145578;27;20458;-60
2022/11/08 16:56:50;;;;;;;4.80;3.23;;;14.20;99.90;;;;;;5145476;27;20531;-60
2022/11/08 16:59:17;;;;;;;4.67;3.27;;;14.20;99.90;;;;;;5144734;27;20710;-60
2022/11/08 17:01:45;;;;;;;4.10;2.97;;;14.20;99.90;;;;;;5144580;27;20490;-61
2022/11/08 17:04:13;;;;;;;4.97;3.03;;;14.30;99.90;;;;;;5144204;27;20489;-61
2022/11/08 17:06:43;;;;;;;6.20;3.10;;;14.30;99.90;;;;;;5142333;27;20458;-61
2022/11/08 17:09:10;;;;;;;4.73;2.70;;;14.30;99.90;;;;;;5140976;27;20486;-60
2022/11/08 17:11:39;;;;;;;4.23;3.50;;;14.30;99.90;;;;;;5144529;27;20465;-61
2022/11/08 17:14:12;;;;;;;6.23;3.37;;;14.30;99.90;;;;;;5144255;27;20472;-60
2022/11/08 17:16:42;;;;;;;5.93;3.90;;;14.40;99.90;;;;;;5142643;27;20449;-62
2022/11/08 17:19:09;;;;;;;5.20;3.07;;;14.40;99.90;;;;;;5125639;27;20480;-60
2022/11/08 17:21:36;;;;;;;4.00;3.00;;;14.40;99.90;;;;;;5124224;27;20471;-61
2022/11/08 17:24:04;;;;;;;5.20;3.53;;;14.40;99.90;;;;;;5121919;28;20467;-61
2022/11/08 17:26:31;;;;;;;12.17;3.60;;;14.40;99.90;;;;;;5121154;28;20466;-61
2022/11/08 17:29:00;;;;;;;3.60;3.30;;;14.40;99.90;;;;;;5120553;28;20493;-60
2022/11/08 17:31:27;;;;;;;4.70;3.10;;;14.40;99.90;;;;;;5120450;28;20470;-60
2022/11/08 17:33:55;;;;;;;4.30;3.33;;;14.40;99.90;;;;;;5136498;27;20465;-62
2022/11/08 17:36:22;;;;;;;5.33;3.20;;;14.50;99.90;;;;;;5129953;27;20445;-60
2022/11/08 17:38:50;;;;;;;5.27;3.43;;;14.50;99.90;;;;;;5120944;28;20485;-60
2022/11/08 17:41:17;;;;;;;4.00;3.13;;;14.50;99.90;;;;;;5120264;27;20466;-62
2022/11/08 17:43:45;;;;;;;3.40;2.80;;;14.40;99.90;;;;;;5130151;27;20806;-62
2022/11/08 17:46:16;;;;;;;4.27;3.10;;;14.20;99.90;;;;;;5139335;27;20451;-61
2022/11/08 17:48:46;;;;;;;5.03;3.63;;;14.10;99.90;;;;;;5140533;27;20483;-61
2022/11/08 17:51:14;;;;;;;4.07;3.43;;;14.00;99.90;;;;;;5139772;27;20437;-62
2022/11/08 17:53:42;;;;;;;4.63;3.30;;;13.90;99.90;;;;;;5128637;27;20440;-61
2022/11/08 17:56:15;;;;;;;5.83;3.50;;;13.80;99.90;;;;;;5139536;27;20611;-62
2022/11/08 17:58:44;;;;;;;5.30;3.37;;;13.80;99.90;;;;;;5140507;27;20498;-61
2022/11/08 18:01:14;;;;;;;5.33;3.93;;;13.80;99.90;;;;;;5140303;27;20478;-61
2022/11/08 18:03:41;;;;;;;4.27;3.47;;;13.80;99.90;;;;;;5141098;27;20437;-61
2022/11/08 18:06:13;;;;;;;7.80;3.60;;;13.80;99.90;;;;;;5133942;27;20482;-60
2022/11/08 18:08:41;;;;;;;3.40;2.87;;;13.70;99.90;;;;;;5120221;28;20871;-58
2022/11/08 18:11:08;;;;;;;4.57;3.03;;;13.80;99.90;;;;;;5119925;28;20470;-61
2022/11/08 18:13:36;;;;;;;4.60;2.77;;;13.80;99.90;;;;;;5120154;28;20464;-62
2022/11/08 18:16:11;;;;;;;9.10;3.53;;;13.80;99.90;;;;;;5120748;28;20471;-61
2022/11/08 18:18:40;;;;;;;3.83;3.23;;;13.80;99.90;;;;;;5120161;28;20455;-61
2022/11/08 18:21:10;;;;;;;5.17;3.57;;;13.80;99.90;;;;;;5119654;28;20447;-61
2022/11/08 18:23:43;;;;;;;5.67;3.50;;;13.80;99.90;;;;;;5120000;28;20463;-61
2022/11/08 18:26:11;;;;;;;3.20;2.87;;;13.90;99.90;;;;;;5119877;28;20466;-62
2022/11/08 18:28:46;;;;;;;3.97;3.60;;;14.00;99.90;;;;;;5120473;28;20536;-62
2022/11/08 18:31:19;;;;;;;5.13;3.57;;;14.00;99.90;;;;;;5119191;28;20459;-62
2022/11/08 18:33:48;;;;;;;5.20;3.40;;;14.00;99.90;;;;;;5118277;28;20473;-62
2022/11/08 18:36:22;;;;;;;4.40;3.30;;;14.10;99.90;;;;;;5129515;27;20458;-61
2022/11/08 18:38:50;;;;;;;9.20;4.03;;;14.10;99.90;;;;;;5140437;27;20461;-61
2022/11/08 18:41:20;;;;;;;5.23;3.30;;;14.20;99.90;;;;;;5140516;27;20459;-61
2022/11/08 18:43:48;;;;;;;3.20;2.90;;;14.20;99.90;;;;;;5140053;27;20763;-62
2022/11/08 18:46:17;;;;;;;5.70;3.50;;;14.20;99.90;;;;;;5140154;27;20459;-59
2022/11/08 18:48:52;;;;;;;5.53;3.30;;;14.20;99.90;;;;;;5139439;27;20490;-63
2022/11/08 18:51:21;;;;;;;4.43;3.53;;;14.30;99.90;;;;;;5139509;27;20557;-62
2022/11/08 18:53:48;;;;;;;5.10;3.30;;;14.30;99.90;;;;;;5139987;27;20548;-61
2022/11/08 18:56:17;;;;;;;4.33;3.20;;;14.30;99.90;;;;;;5140107;27;20560;-60
2022/11/08 18:58:48;;;;;;;6.33;3.27;;;14.30;99.90;;;;;;5139929;27;20430;-61
2022/11/08 19:01:17;;;;;;;4.40;2.70;;;14.30;99.90;;;;;;5139478;27;20535;-61
2022/11/08 19:03:44;;;;;;;5.00;3.20;;;14.30;99.90;;;;;;5139010;27;20549;-61
2022/11/08 19:06:13;;;;;;;4.57;3.03;;;14.30;99.90;;;;;;5140368;27;20454;-61
2022/11/08 19:08:51;;;;;;;5.17;3.37;;;14.40;99.90;;;;;;5140026;27;20782;-60
2022/11/08 19:11:21;;;;;;;4.20;3.30;;;14.30;99.90;;;;;;5139592;27;20549;-62
2022/11/08 19:13:49;;;;;;;6.50;3.57;;;14.30;99.90;;;;;;5139385;27;20458;-62
2022/11/08 19:16:18;;;;;;;4.50;2.83;;;14.30;99.90;;;;;;5139865;27;20701;-62
2022/11/08 19:18:48;;;;;;;4.57;3.70;;;14.30;99.90;;;;;;5139407;27;20919;-62
2022/11/08 19:21:19;;;;;;;6.30;4.50;;;14.40;99.90;;;;;;5139875;27;20433;-61
2022/11/08 19:23:50;;;;;;;6.43;5.73;;;14.40;99.90;;;;;;5139959;27;20451;-59
2022/11/08 19:26:20;;;;;;;7.90;4.20;;;14.50;99.90;;;;;;5139802;27;20459;-61
2022/11/08 19:28:49;;;;;;;4.40;3.47;;;14.50;99.90;;;;;;5139750;27;20886;-61
2022/11/08 19:31:19;;;;;;;5.60;3.87;;;14.50;99.90;;;;;;5139522;27;20570;-62
2022/11/08 19:33:47;;;;;;;5.60;3.70;;;14.50;99.90;;;;;;5135770;27;20483;-60
2022/11/08 19:36:18;;;;;;;5.47;3.30;;;14.60;99.90;;;;;;5139234;27;20462;-62
2022/11/08 19:38:46;;;;;;;4.53;3.10;;;14.70;99.90;;;;;;5139401;27;20450;-61
2022/11/08 19:41:17;;;;;;;3.70;2.80;;;14.70;99.90;;;;;;5138920;27;20482;-60
2022/11/08 19:43:48;;;;;;;6.20;3.83;;;14.70;99.90;;;;;;5137163;27;20515;-62
2022/11/08 19:46:16;;;;;;;4.00;3.37;;;14.70;99.90;;;;;;5139294;27;20469;-61
2022/11/08 19:48:45;;;;;;;6.13;3.67;;;14.80;99.90;;;;;;5136934;27;20478;-59
2022/11/08 19:51:22;;;;;;;4.30;2.93;;;14.80;99.90;;;;;;5139173;27;20458;-61
2022/11/08 19:53:51;;;;;;;5.63;3.40;;;14.80;99.90;;;;;;5139212;27;20454;-62
2022/11/08 19:56:20;;;;;;;3.97;3.17;;;14.80;99.90;;;;;;5139196;27;20795;-62
2022/11/08 19:58:53;;;;;;;7.00;3.13;;;14.80;99.90;;;;;;5139479;27;20941;-61
2022/11/08 20:01:28;;;;;;;5.70;2.90;;;14.80;99.90;;;;;;5138513;27;20569;-63
2022/11/08 20:03:56;;;;;;;3.50;3.20;;;14.90;99.90;;;;;;5138509;27;20541;-60
2022/11/08 20:06:27;;;;;;;7.23;3.57;;;15.00;99.90;;;;;;5139243;27;20459;-62
2022/11/08 20:08:56;;;;;;;5.03;3.23;;;14.90;99.90;;;;;;5139220;27;20461;-62
2022/11/08 20:11:27;;;;;;;3.73;2.73;;;14.90;99.90;;;;;;5138811;28;20462;-62
2022/11/08 20:13:56;;;;;;;4.67;2.90;;;14.90;99.90;;;;;;5138489;28;20454;-62
2022/11/08 20:16:27;;;;;;;4.47;2.93;;;14.80;99.90;;;;;;5139619;27;20824;-59
2022/11/08 20:18:55;;;;;;;4.40;3.20;;;14.70;99.90;;;;;;5139443;28;20876;-62
2022/11/08 20:21:22;;;;;;;3.77;2.90;;;14.70;99.90;;;;;;5138977;27;20465;-62
2022/11/08 20:23:51;;;;;;;3.63;3.20;;;14.70;99.90;;;;;;5138195;27;20454;-61
2022/11/08 20:26:20;;;;;;;5.13;3.23;;;14.60;99.90;;;;;;5139041;27;20764;-62
2022/11/08 20:28:50;;;;;;;5.23;2.60;;;14.70;99.90;;;;;;5139441;27;20871;-62
2022/11/08 20:31:20;;;;;;;3.80;3.10;;;14.70;99.90;;;;;;5138433;27;20728;-59
2022/11/08 20:33:51;;;;;;;5.37;3.20;;;14.60;99.90;;;;;;5137635;28;20450;-60
2022/11/08 20:36:24;;;;;;;4.07;2.80;;;14.60;99.90;;;;;;5136270;27;20433;-61
2022/11/08 20:38:57;;;;;;;5.03;3.53;;;14.50;99.90;;;;;;5135224;28;20550;-62
2022/11/08 20:41:24;;;;;;;5.73;3.17;;;14.50;99.90;;;;;;5136719;28;20475;-63
2022/11/08 20:43:51;;;;;;;3.73;3.00;;;14.50;99.90;;;;;;5137133;28;20472;-61
2022/11/08 20:46:21;;;;;;;3.93;3.53;;;14.50;99.90;;;;;;5136402;28;20825;-57
2022/11/08 20:48:54;;;;;;;7.00;3.70;;;14.60;99.90;;;;;;5133877;28;20997;-58
2022/11/08 20:51:21;;;;;;;4.33;3.27;;;14.60;99.90;;;;;;5136651;28;20519;-60
2022/11/08 20:53:48;;;;;;;4.33;3.00;;;14.70;99.90;;;;;;5133582;28;20450;-60
2022/11/08 20:56:21;;;;;;;4.73;2.90;;;14.70;99.90;;;;;;5135824;27;20429;-59
2022/11/08 20:58:50;;;;;;;4.40;3.10;;;14.70;99.90;;;;;;5137072;27;20463;-57
2022/11/08 21:01:19;;;;;;;5.03;3.37;;;14.70;99.90;;;;;;5137799;27;20554;-60
2022/11/08 21:03:50;;;;;;;5.03;3.10;;;14.80;99.90;;;;;;5140333;27;20457;-58
2022/11/08 21:06:20;;;;;;;7.30;3.10;;;14.80;99.90;;;;;;5137599;27;20888;-60
2022/11/08 21:08:48;;;;;;;3.73;3.20;;;14.80;99.90;;;;;;5140692;27;20439;-58
2022/11/08 21:11:20;;;;;;;4.20;2.70;;;14.80;99.90;;;;;;5132356;27;20463;-60
2022/11/08 21:13:50;;;;;;;9.00;3.57;;;14.80;99.90;;;;;;5132884;27;20463;-58
2022/11/08 21:16:18;;;;;;;3.67;3.10;;;14.80;99.90;;;;;;5138931;27;20739;-57